Time;durP1;ratioP1;P1;durP2;ratioP2;P2;SDS_P1;SDS_P2;PMS_P1;PMS_P2;Temp;Humidity;BMP_temperature;BMP_pressure;BME280_temperature;BME280_humidity;BME280_pressure;Samples;Min_cycle;Max_cycle;Signal;HPM_P1;HPM_P2
2023/12/03 00:01:08;;;;;;;55.00;43.60;;;;;;;-1.34;100.00;100014.33;110010;1265;22250;-78
2023/12/03 00:04:02;;;;;;;54.50;43.80;;;;;;;-1.39;100.00;100017.05;110223;1265;22008;-77
2023/12/03 00:06:36;;;;;;;57.50;44.30;;;;;;;-1.44;100.00;100016.16;109806;1269;21987;-77
2023/12/03 00:09:29;;;;;;;57.00;44.00;;;;;;;-1.54;100.00;100009.29;109927;1268;23038;-77
2023/12/03 00:12:09;;;;;;;53.70;41.00;;;;;;;-1.55;100.00;100016.60;109925;1268;21819;-76
2023/12/03 00:14:43;;;;;;;55.80;43.60;;;;;;;-1.56;100.00;100016.08;109927;1265;21969;-77
2023/12/03 00:17:22;;;;;;;60.20;46.30;;;;;;;-1.56;100.00;100015.06;110272;1263;21969;-77
2023/12/03 00:20:08;;;;;;;56.20;43.70;;;;;;;-1.55;100.00;100016.45;110164;1265;21992;-76
2023/12/03 00:22:47;;;;;;;58.90;45.30;;;;;;;-1.54;100.00;100019.34;110253;1264;21973;-76
2023/12/03 00:25:38;;;;;;;60.00;45.10;;;;;;;-1.53;100.00;100023.11;110340;1260;21973;-75
2023/12/03 00:28:22;;;;;;;59.70;43.50;;;;;;;-1.56;100.00;100026.34;110551;1260;22069;-76
2023/12/03 00:31:01;;;;;;;62.40;44.70;;;;;;;-1.59;100.00;100031.60;110382;1263;21994;-76
2023/12/03 00:33:37;;;;;;;52.40;40.80;;;;;;;-1.62;100.00;100033.79;110336;1263;22027;-77
2023/12/03 00:36:07;;;;;;;;;;;;;;;-1.63;100.00;100033.61;110346;1263;21950;-78
2023/12/03 00:38:42;;;;;;;53.50;39.90;;;;;;;-1.72;100.00;100034.07;109992;1269;21981;-76
2023/12/03 00:41:14;;;;;;;49.50;39.50;;;;;;;-1.72;100.00;100035.61;109983;1268;22036;-76
2023/12/03 00:43:50;;;;;;;51.50;39.80;;;;;;;-1.70;100.00;100038.70;108947;1276;22168;-76
2023/12/03 00:46:33;;;;;;;47.50;38.20;;;;;;;-1.71;100.00;100038.85;109232;1273;21980;-77
2023/12/03 00:49:18;;;;;;;49.30;38.70;;;;;;;-1.71;100.00;100040.90;109467;1271;22756;-78
2023/12/03 00:51:55;;;;;;;43.60;35.50;;;;;;;-1.72;100.00;100045.52;109352;1272;22018;-78
2023/12/03 00:54:47;;;;;;;44.60;35.10;;;;;;;-1.72;100.00;100047.38;109335;1272;22038;-78
2023/12/03 00:57:42;;;;;;;43.90;34.00;;;;;;;-1.80;100.00;100037.59;109929;1266;21968;-75
2023/12/03 01:00:17;;;;;;;47.60;37.50;;;;;;;-1.76;100.00;100054.35;109806;1266;21992;-77
2023/12/03 01:02:57;;;;;;;45.80;35.30;;;;;;;-1.78;100.00;100056.89;110566;1260;21963;-76
2023/12/03 01:05:34;;;;;;;47.20;36.50;;;;;;;-1.78;100.00;100057.91;110661;1259;21935;-75
2023/12/03 01:08:08;;;;;;;44.80;35.90;;;;;;;-1.77;100.00;100059.80;110646;1260;21964;-77
2023/12/03 01:11:14;;;;;;;42.70;34.10;;;;;;;-1.78;100.00;100064.73;110773;1259;23082;-77
2023/12/03 01:14:11;;;;;;;42.10;32.20;;;;;;;-1.82;100.00;100064.53;110716;1260;23441;-76
2023/12/03 01:16:53;;;;;;;45.80;35.80;;;;;;;-1.82;100.00;100067.10;110567;1260;22040;-76
2023/12/03 01:19:24;;;;;;;40.00;32.30;;;;;;;-1.82;100.00;100067.61;110682;1259;22762;-75
2023/12/03 01:22:01;;;;;;;39.30;31.40;;;;;;;-1.85;100.00;100068.43;110655;1260;24543;-77
2023/12/03 01:24:36;;;;;;;37.90;30.50;;;;;;;-1.86;100.00;100074.56;110121;1265;22482;-75
2023/12/03 01:27:19;;;;;;;39.80;31.10;;;;;;;-1.86;100.00;100075.42;110145;1264;21980;-78
2023/12/03 01:29:54;;;;;;;37.80;28.00;;;;;;;-1.85;100.00;100072.02;109612;1270;21989;-76
2023/12/03 01:32:25;;;;;;;41.70;31.90;;;;;;;-1.83;100.00;100073.05;109747;1269;22732;-77
2023/12/03 01:35:16;;;;;;;36.30;28.50;;;;;;;-1.83;100.00;100072.38;109514;1269;21980;-75
2023/12/03 01:37:59;;;;;;;38.40;28.70;;;;;;;-1.86;100.00;100077.81;109761;1268;21998;-76
2023/12/03 01:40:32;;;;;;;38.60;29.40;;;;;;;-1.87;100.00;100083.60;109827;1269;21972;-77
2023/12/03 01:43:11;;;;;;;32.60;27.60;;;;;;;-1.88;100.00;100089.39;109990;1266;21973;-76
2023/12/03 01:45:45;;;;;;;32.60;26.30;;;;;;;-1.86;100.00;100091.27;110306;1265;22014;-77
2023/12/03 01:48:14;;;;;;;36.00;28.80;;;;;;;-1.85;100.00;100091.13;110531;1260;21989;-77
2023/12/03 01:50:51;;;;;;;31.80;25.20;;;;;;;-1.85;100.00;100092.65;109950;1266;22015;-77
2023/12/03 01:53:20;;;;;;;32.20;25.90;;;;;;;-1.85;100.00;100100.33;109974;1265;23726;-76
2023/12/03 01:55:52;;;;;;;33.70;25.70;;;;;;;-1.85;100.00;100106.46;110014;1265;21932;-77
2023/12/03 01:58:28;;;;;;;35.10;27.50;;;;;;;-1.86;100.00;100111.59;110325;1265;21997;-77
2023/12/03 02:00:58;;;;;;;39.60;28.20;;;;;;;-1.87;100.00;100112.42;110304;1265;23250;-76
2023/12/03 02:03:46;;;;;;;33.30;27.00;;;;;;;-1.87;100.00;100113.77;110304;1265;21978;-77
2023/12/03 02:06:21;;;;;;;32.40;27.60;;;;;;;-1.87;100.00;100115.49;110138;1265;21999;-78
2023/12/03 02:08:56;;;;;;;38.00;29.70;;;;;;;-1.89;100.00;100112.41;109826;1265;23029;-76
2023/12/03 02:11:30;;;;;;;35.20;26.90;;;;;;;-1.83;100.00;100118.43;110022;1265;23595;-75
2023/12/03 02:14:03;;;;;;;34.70;28.80;;;;;;;-1.81;100.00;100118.98;109913;1265;21968;-76
2023/12/03 02:16:34;;;;;;;36.60;28.90;;;;;;;-1.80;100.00;100118.98;109626;1270;22046;-78
2023/12/03 02:19:16;;;;;;;35.40;29.60;;;;;;;-1.81;100.00;100123.90;109005;1276;21986;-76
2023/12/03 02:21:52;;;;;;;37.70;28.90;;;;;;;-1.81;100.00;100125.96;109027;1276;24567;-76
2023/12/03 02:24:29;;;;;;;37.70;30.00;;;;;;;-1.82;100.00;100127.64;109022;1275;22027;-77
2023/12/03 02:27:08;;;;;;;40.40;30.80;;;;;;;-1.82;100.00;100127.65;108984;1276;23857;-76
2023/12/03 02:29:48;;;;;;;40.20;30.60;;;;;;;-1.81;100.00;100126.64;108930;1276;21984;-76
2023/12/03 02:32:33;;;;;;;42.70;32.80;;;;;;;-1.83;100.00;100131.05;109090;1276;22635;-76
2023/12/03 02:35:04;;;;;;;42.10;31.70;;;;;;;-1.85;100.00;100131.55;109308;1272;22002;-77
2023/12/03 02:37:34;;;;;;;45.20;34.40;;;;;;;-1.85;100.00;100133.25;109158;1272;21995;-74
2023/12/03 02:40:09;;;;;;;42.90;33.90;;;;;;;-1.93;100.00;100121.58;109367;1272;22602;-76
2023/12/03 02:42:50;;;;;;;43.80;33.40;;;;;;;-1.88;100.00;100135.08;109378;1272;23132;-77
2023/12/03 02:45:25;;;;;;;44.30;34.10;;;;;;;-1.89;100.00;100139.19;109394;1272;21996;-75
2023/12/03 02:48:09;;;;;;;42.80;33.10;;;;;;;-1.94;100.00;100134.20;109368;1273;22020;-79
2023/12/03 02:50:45;;;;;;;43.40;34.50;;;;;;;-1.93;100.00;100143.58;109541;1272;23045;-78
2023/12/03 02:53:17;;;;;;;39.50;32.30;;;;;;;-1.95;100.00;100144.75;109697;1267;23752;-76
2023/12/03 02:55:53;;;;;;;41.50;32.20;;;;;;;-1.96;100.00;100150.71;110525;1259;22356;-77
2023/12/03 02:58:35;;;;;;;41.30;31.80;;;;;;;-1.96;100.00;100153.78;110760;1259;21969;-76
2023/12/03 03:01:22;;;;;;;41.60;32.40;;;;;;;-2.03;100.00;100144.85;110614;1260;21964;-77
2023/12/03 03:04:02;;;;;;;39.00;31.40;;;;;;;-1.96;100.00;100153.96;110713;1259;23065;-77
2023/12/03 03:06:37;;;;;;;;;;;;;;;-1.97;100.00;100154.62;110452;1263;23698;-76
2023/12/03 03:09:10;;;;;;;38.90;27.90;;;;;;;-2.05;100.00;100160.36;110329;1264;21984;-77
2023/12/03 03:11:57;;;;;;;36.40;29.10;;;;;;;-2.06;100.00;100167.16;110395;1264;23220;-76
2023/12/03 03:14:32;;;;;;;37.20;29.50;;;;;;;-2.01;100.00;100168.92;109393;1270;21988;-78
2023/12/03 03:17:05;;;;;;;40.50;31.40;;;;;;;-2.00;100.00;100172.33;109403;1270;21984;-77
2023/12/03 03:19:45;;;;;;;37.10;28.40;;;;;;;-1.99;100.00;100177.12;109401;1271;21977;-77
2023/12/03 03:22:16;;;;;;;40.00;30.60;;;;;;;-1.99;100.00;100178.83;109025;1275;23695;-77
2023/12/03 03:24:51;;;;;;;36.50;29.20;;;;;;;-1.97;100.00;100180.55;109201;1270;21976;-77
2023/12/03 03:27:31;;;;;;;35.70;29.50;;;;;;;-1.95;100.00;100185.69;109609;1270;21977;-77
2023/12/03 03:30:06;;;;;;;34.90;29.30;;;;;;;-1.94;100.00;100184.67;109389;1270;21981;-77
2023/12/03 03:32:41;;;;;;;34.90;27.90;;;;;;;-1.93;100.00;100186.21;109929;1264;22077;-75
2023/12/03 03:35:16;;;;;;;34.40;27.90;;;;;;;-1.91;100.00;100190.67;109701;1268;23170;-77
2023/12/03 03:37:56;;;;;;;32.50;26.50;;;;;;;-1.90;100.00;100195.29;109681;1270;21992;-77
2023/12/03 03:40:32;;;;;;;37.20;29.30;;;;;;;-1.88;100.00;100196.48;109334;1270;23974;-77
2023/12/03 03:43:14;;;;;;;30.20;25.10;;;;;;;-1.87;100.00;100200.95;109637;1270;22005;-77
2023/12/03 03:45:56;;;;;;;31.90;26.10;;;;;;;-1.85;100.00;100204.38;109462;1270;21991;-75
2023/12/03 03:48:35;;;;;;;33.50;26.80;;;;;;;-1.84;100.00;100208.32;109407;1270;21972;-75
2023/12/03 03:51:23;;;;;;;32.20;25.20;;;;;;;-1.85;100.00;100206.95;109602;1270;22306;-75
2023/12/03 03:54:12;;;;;;;30.50;25.50;;;;;;;-1.83;100.00;100202.86;110039;1264;21967;-77
2023/12/03 03:56:55;;;;;;;30.20;24.90;;;;;;;-1.78;100.00;100202.23;109579;1270;21989;-77
2023/12/03 03:59:42;;;;;;;32.10;26.10;;;;;;;-1.73;100.00;100203.66;109496;1270;23734;-77
2023/12/03 04:02:19;;;;;;;32.80;25.10;;;;;;;-1.72;100.00;100211.52;109625;1270;21983;-78
2023/12/03 04:05:21;;;;;;;29.30;24.40;;;;;;;-1.73;100.00;100210.98;109025;1274;23082;-76
2023/12/03 04:07:58;;;;;;;30.70;25.20;;;;;;;-1.73;100.00;100214.56;109158;1274;21995;-77
2023/12/03 04:10:39;;;;;;;29.50;23.80;;;;;;;-1.76;100.00;100206.86;108867;1278;21997;-76
2023/12/03 04:13:24;;;;;;;31.90;25.70;;;;;;;-1.76;100.00;100207.23;108807;1274;21974;-78
2023/12/03 04:15:57;;;;;;;27.90;23.90;;;;;;;-1.81;100.00;100196.75;108893;1273;23083;-76
2023/12/03 04:18:42;;;;;;;29.20;23.70;;;;;;;-1.69;100.00;100217.68;109000;1275;21997;-77
2023/12/03 04:21:47;;;;;;;30.00;23.10;;;;;;;-1.68;100.00;100223.33;109062;1274;22960;-77
2023/12/03 04:24:26;;;;;;;31.10;25.00;;;;;;;-1.66;100.00;100225.37;109706;1269;21977;-75
2023/12/03 04:27:28;;;;;;;26.00;21.60;;;;;;;-1.64;100.00;100231.04;109398;1270;22005;-76
2023/12/03 04:30:36;;;;;;;27.10;21.80;;;;;;;-1.59;100.00;100233.65;110260;1265;23641;-75
2023/12/03 04:33:14;;;;;;;29.10;22.60;;;;;;;-1.52;100.00;100237.13;110310;1265;23599;-77
2023/12/03 04:35:45;;;;;;;29.20;23.60;;;;;;;-1.48;100.00;100239.38;110044;1259;24492;-76
2023/12/03 04:38:19;;;;;;;32.20;24.70;;;;;;;-1.47;100.00;100236.16;110726;1259;21966;-76
2023/12/03 04:40:52;;;;;;;27.90;23.60;;;;;;;-1.46;100.00;100238.71;110587;1259;22229;-77
2023/12/03 04:43:32;;;;;;;27.30;22.30;;;;;;;-1.44;100.00;100245.73;110585;1259;22419;-76
2023/12/03 04:46:05;;;;;;;24.80;21.50;;;;;;;-1.45;100.00;100250.85;110451;1259;24124;-76
2023/12/03 04:48:44;;;;;;;24.90;22.20;;;;;;;-1.44;100.00;100251.20;110615;1254;21987;-76
2023/12/03 04:51:39;;;;;;;29.20;22.50;;;;;;;-1.44;100.00;100257.69;110539;1259;23062;-76
2023/12/03 04:54:10;;;;;;;25.30;20.40;;;;;;;-1.43;100.00;100252.06;110585;1259;21983;-75
2023/12/03 04:56:47;;;;;;;26.80;22.20;;;;;;;-1.41;100.00;100251.56;110637;1259;22137;-77
2023/12/03 04:59:21;;;;;;;23.80;21.20;;;;;;;-1.40;100.00;100258.41;110289;1262;23025;-76
2023/12/03 05:01:55;;;;;;;26.00;20.70;;;;;;;-1.41;100.00;100260.61;110389;1263;22030;-76
2023/12/03 05:04:26;;;;;;;23.20;20.80;;;;;;;-1.41;100.00;100263.70;109868;1269;21982;-76
2023/12/03 05:07:01;;;;;;;24.00;20.70;;;;;;;-1.42;100.00;100265.91;109477;1269;22761;-76
2023/12/03 05:09:42;;;;;;;27.50;21.70;;;;;;;-1.44;100.00;100269.80;109345;1269;21981;-75
2023/12/03 05:12:27;;;;;;;23.60;20.40;;;;;;;-1.43;100.00;100273.23;109875;1269;22944;-77
2023/12/03 05:15:05;;;;;;;25.00;20.80;;;;;;;-1.42;100.00;100276.48;109455;1268;21975;-75
2023/12/03 05:17:50;;;;;;;25.40;22.70;;;;;;;-1.42;100.00;100280.23;110067;1265;21992;-75
2023/12/03 05:20:32;;;;;;;21.90;19.20;;;;;;;-1.42;100.00;100281.08;109944;1265;23628;-78
2023/12/03 05:23:15;;;;;;;25.00;21.60;;;;;;;-1.46;100.00;100277.98;110117;1266;24953;-76
2023/12/03 05:25:57;;;;;;;26.60;20.90;;;;;;;-1.40;100.00;100284.02;109706;1267;21980;-75
2023/12/03 05:28:36;;;;;;;23.30;20.80;;;;;;;-1.37;100.00;100291.20;109490;1267;23078;-76
2023/12/03 05:31:09;;;;;;;22.50;19.10;;;;;;;-1.35;100.00;100291.56;109996;1266;23621;-75
2023/12/03 05:33:42;;;;;;;25.60;22.80;;;;;;;-1.48;100.00;100267.05;109615;1269;23599;-76
2023/12/03 05:36:27;;;;;;;22.80;20.40;;;;;;;-1.33;100.00;100293.47;109656;1270;22026;-75
2023/12/03 05:38:59;;;;;;;23.50;20.50;;;;;;;-1.32;100.00;100296.72;109676;1270;22712;-76
2023/12/03 05:41:42;;;;;;;;;;;;;;;-1.32;100.00;100302.70;109068;1272;22300;-75
2023/12/03 05:44:18;;;;;;;20.40;18.00;;;;;;;-1.38;100.00;100307.77;109418;1272;23087;-76
2023/12/03 05:46:55;;;;;;;20.00;17.90;;;;;;;-1.39;100.00;100309.98;109456;1269;23053;-75
2023/12/03 05:49:36;;;;;;;22.70;20.20;;;;;;;-1.39;100.00;100309.30;109876;1269;22035;-75
2023/12/03 05:52:18;;;;;;;21.00;18.70;;;;;;;-1.38;100.00;100311.34;109896;1265;22420;-76
2023/12/03 05:54:53;;;;;;;20.20;18.00;;;;;;;-1.38;100.00;100312.55;110297;1262;21997;-76
2023/12/03 05:57:26;;;;;;;20.70;18.50;;;;;;;-1.36;100.00;100317.34;110266;1265;21977;-76
2023/12/03 06:00:03;;;;;;;21.00;17.70;;;;;;;-1.34;100.00;100319.07;110122;1262;22931;-75
2023/12/03 06:02:37;;;;;;;20.40;18.20;;;;;;;-1.31;100.00;100325.59;109830;1268;21989;-76
2023/12/03 06:05:29;;;;;;;18.70;15.40;;;;;;;-1.30;100.00;100326.63;109934;1265;22974;-76
2023/12/03 06:08:09;;;;;;;19.30;16.30;;;;;;;-1.29;100.00;100332.44;109827;1267;21975;-78
2023/12/03 06:10:56;;;;;;;18.60;16.90;;;;;;;-1.29;100.00;100335.52;109824;1270;22877;-75
2023/12/03 06:13:34;;;;;;;21.90;19.50;;;;;;;-1.27;100.00;100338.10;109097;1277;22278;-76
2023/12/03 06:16:17;;;;;;;17.60;15.80;;;;;;;-1.25;100.00;100341.70;108889;1277;21992;-76
2023/12/03 06:19:13;;;;;;;16.20;14.70;;;;;;;-1.23;100.00;100349.41;109248;1274;23717;-76
2023/12/03 06:21:58;;;;;;;15.00;13.50;;;;;;;-1.21;100.00;100357.62;109562;1271;23008;-76
2023/12/03 06:24:47;;;;;;;15.90;14.30;;;;;;;-1.19;100.00;100357.30;109455;1271;23624;-77
2023/12/03 06:27:40;;;;;;;15.20;13.70;;;;;;;-1.21;100.00;100359.85;109470;1271;21980;-74
2023/12/03 06:30:26;;;;;;;14.30;12.90;;;;;;;-1.23;100.00;100368.19;110092;1266;22083;-78
2023/12/03 06:33:03;;;;;;;14.70;13.20;;;;;;;-1.21;100.00;100370.60;109981;1266;22060;-77
2023/12/03 06:35:47;;;;;;;14.40;13.00;;;;;;;-1.21;100.00;100375.55;110141;1263;21974;-76
2023/12/03 06:38:53;;;;;;;13.20;11.90;;;;;;;-1.23;100.00;100377.41;110544;1260;22536;-75
2023/12/03 06:41:27;;;;;;;14.70;13.20;;;;;;;-1.24;100.00;100379.45;110606;1260;21962;-76
2023/12/03 06:44:30;;;;;;;13.90;12.10;;;;;;;-1.23;100.00;100382.70;110306;1263;21977;-75
2023/12/03 06:51:07;;;;;;;13.80;12.40;;;;;;;-1.30;100.00;100398.34;105909;1280;22038;-77
2023/12/03 06:54:12;;;;;;;13.40;12.10;;;;;;;-1.30;100.00;100400.55;108556;1274;22010;-79
2023/12/03 06:58:13;;;;;;;;;;;;;;;;;;;;;
2023/12/03 07:06:03;;;;;;;;;;;;;;;;;;;;;
2023/12/03 07:10:10;;;;;;;13.50;11.10;;;;;;;-1.37;100.00;100426.42;109053;1276;21997;-76
2023/12/03 07:13:32;;;;;;;13.50;10.90;;;;;;;-1.37;100.00;100434.79;108978;1276;22002;-76
2023/12/03 07:17:14;;;;;;;14.80;11.90;;;;;;;-1.37;100.00;100443.66;108759;1281;23775;-79
2023/12/03 07:20:44;;;;;;;57.80;42.50;;;;;;;-1.37;100.00;100449.80;108917;1274;22426;-76
2023/12/03 07:23:29;;;;;;;17.80;15.20;;;;;;;-1.37;100.00;100454.94;109066;1278;23695;-77
2023/12/03 07:26:29;;;;;;;17.10;12.40;;;;;;;-1.35;100.00;100457.52;109070;1274;22004;-79
2023/12/03 07:29:01;;;;;;;12.40;11.00;;;;;;;-1.37;100.00;100459.39;109206;1268;22004;-79
2023/12/03 07:31:33;;;;;;;13.00;11.70;;;;;;;-1.36;100.00;100462.29;109077;1275;22434;-77
2023/12/03 07:34:25;;;;;;;12.00;10.50;;;;;;;-1.37;100.00;100465.70;109042;1274;23007;-76
2023/12/03 07:37:30;;;;;;;13.50;11.50;;;;;;;-1.37;100.00;100473.55;109057;1275;22000;-78
2023/12/03 07:40:56;;;;;;;15.70;11.40;;;;;;;-1.39;100.00;100480.70;109057;1271;23126;-77
2023/12/03 07:43:24;;;;;;;16.10;12.20;;;;;;;-1.42;100.00;100484.59;109024;1275;23732;-76
2023/12/03 07:46:10;;;;;;;12.60;11.30;;;;;;;-1.43;100.00;100488.83;108927;1266;23049;-75
2023/12/03 07:48:44;;;;;;;17.60;13.60;;;;;;;-1.43;100.00;100494.13;109588;1269;23658;-75
2023/12/03 07:51:12;;;;;;;14.40;11.70;;;;;;;-1.42;100.00;100495.52;109329;1273;23609;-76
2023/12/03 07:53:49;;;;;;;15.60;11.50;;;;;;;-1.45;100.00;100495.80;109404;1272;21986;-76
2023/12/03 07:56:24;;;;;;;14.20;12.10;;;;;;;-1.44;100.00;100502.82;109626;1270;22747;-75
2023/12/03 07:59:04;;;;;;;13.70;12.30;;;;;;;-1.45;100.00;100507.74;109305;1273;22014;-76
2023/12/03 08:01:33;;;;;;;15.80;13.20;;;;;;;-1.45;100.00;100512.02;109380;1273;22976;-76
2023/12/03 08:04:03;;;;;;;18.00;14.30;;;;;;;-1.45;100.00;100515.60;109478;1270;21987;-76
2023/12/03 08:06:34;;;;;;;19.70;14.20;;;;;;;-1.47;100.00;100517.95;109679;1271;22162;-76
2023/12/03 08:09:08;;;;;;;18.80;15.70;;;;;;;-1.49;100.00;100520.67;109217;1271;21953;-75
2023/12/03 08:11:37;;;;;;;20.00;14.70;;;;;;;-1.49;100.00;100525.98;109746;1270;23035;-76
2023/12/03 08:14:09;;;;;;;19.20;14.50;;;;;;;-1.48;100.00;100532.46;109605;1270;21987;-76
2023/12/03 08:16:38;;;;;;;19.00;15.80;;;;;;;-1.50;100.00;100535.34;110126;1264;23034;-75
2023/12/03 08:19:17;;;;;;;20.80;17.10;;;;;;;-1.47;100.00;100536.56;110433;1265;22184;-77
2023/12/03 08:21:47;;;;;;;22.90;16.30;;;;;;;-1.38;100.00;100543.52;109567;1269;22095;-76
2023/12/03 08:24:18;;;;;;;22.00;17.10;;;;;;;-1.30;100.00;100548.06;109977;1268;22356;-76
2023/12/03 08:26:50;;;;;;;23.30;18.00;;;;;;;-1.25;100.00;100554.29;109859;1266;21975;-75
2023/12/03 08:29:18;;;;;;;24.00;18.90;;;;;;;-1.21;100.00;100561.19;110226;1265;21986;-77
2023/12/03 08:31:56;;;;;;;27.50;20.80;;;;;;;-1.15;100.00;100563.30;110054;1265;23468;-77
2023/12/03 08:34:28;;;;;;;30.80;21.80;;;;;;;-1.09;100.00;100563.90;110142;1265;21966;-77
2023/12/03 08:37:04;;;;;;;27.10;21.80;;;;;;;-1.03;100.00;100572.00;110162;1265;22087;-77
2023/12/03 08:39:35;;;;;;;25.80;20.40;;;;;;;-0.97;100.00;100575.33;110307;1260;22081;-77
2023/12/03 08:42:08;;;;;;;29.70;23.60;;;;;;;-0.94;100.00;100580.49;110750;1259;23600;-78
2023/12/03 08:45:03;;;;;;;27.60;22.10;;;;;;;-0.88;100.00;100583.64;111006;1259;21969;-75
2023/12/03 08:47:39;;;;;;;26.20;20.40;;;;;;;-0.84;100.00;100580.95;110784;1257;22989;-78
2023/12/03 08:50:47;;;;;;;28.10;21.30;;;;;;;-0.76;100.00;100595.41;111078;1259;23040;-78
2023/12/03 08:53:21;;;;;;;25.70;19.40;;;;;;;-0.69;100.00;100600.63;110766;1259;21969;-76
2023/12/03 08:56:00;;;;;;;26.20;19.10;;;;;;;-0.74;100.00;100606.71;110763;1259;22030;-76
2023/12/03 08:58:36;;;;;;;23.30;19.10;;;;;;;-0.80;100.00;100611.08;109846;1267;22032;-76
2023/12/03 09:01:16;;;;;;;30.10;21.10;;;;;;;-0.81;100.00;100616.02;109394;1271;23097;-77
2023/12/03 09:04:02;;;;;;;26.70;21.90;;;;;;;-0.82;100.00;100617.55;109639;1271;21982;-74
2023/12/03 09:06:44;;;;;;;26.40;21.30;;;;;;;-0.80;100.00;100622.88;109365;1271;22016;-75
2023/12/03 09:09:13;;;;;;;;;;;;;;;-0.75;100.00;100633.02;109516;1271;21994;-77
2023/12/03 09:11:59;;;;;;;33.30;22.60;;;;;;;-0.79;100.00;100637.25;109087;1274;21998;-76
2023/12/03 09:14:43;;;;;;;29.90;22.70;;;;;;;-0.81;100.00;100636.88;109109;1275;22094;-77
2023/12/03 09:17:21;;;;;;;32.50;23.70;;;;;;;-0.77;100.00;100640.52;109032;1276;22965;-76
2023/12/03 09:20:10;;;;;;;30.30;21.70;;;;;;;-0.76;100.00;100641.04;108943;1277;22780;-75
2023/12/03 09:22:56;;;;;;;28.60;23.10;;;;;;;-0.76;100.00;100642.91;109095;1271;22052;-76
2023/12/03 09:25:27;;;;;;;30.40;23.60;;;;;;;-0.77;100.00;100645.48;109682;1270;21996;-76
2023/12/03 09:28:06;;;;;;;26.60;22.60;;;;;;;-0.74;100.00;100644.66;109684;1270;23443;-76
2023/12/03 09:30:38;;;;;;;32.80;23.20;;;;;;;-0.69;100.00;100644.39;109613;1268;21986;-77
2023/12/03 09:33:16;;;;;;;28.20;20.40;;;;;;;-0.68;100.00;100648.16;109968;1268;23752;-77
2023/12/03 09:35:51;;;;;;;27.70;22.30;;;;;;;-0.67;100.00;100652.09;110023;1268;21987;-79
2023/12/03 09:38:32;;;;;;;30.60;22.80;;;;;;;-0.64;100.00;100651.80;109709;1268;23724;-77
2023/12/03 09:41:15;;;;;;;34.60;24.70;;;;;;;-0.63;100.00;100650.45;109366;1271;23076;-79
2023/12/03 09:44:10;;;;;;;29.00;21.60;;;;;;;-0.68;100.00;100653.46;109612;1271;24964;-78
2023/12/03 09:46:54;;;;;;;28.90;22.20;;;;;;;-0.71;100.00;100658.20;109412;1272;21989;-78
2023/12/03 09:49:31;;;;;;;27.70;21.60;;;;;;;-0.72;100.00;100659.73;109583;1269;22196;-75
2023/12/03 09:52:10;;;;;;;31.50;23.10;;;;;;;-0.73;100.00;100655.44;109448;1269;23703;-78
2023/12/03 09:54:58;;;;;;;41.90;34.70;;;;;;;-0.78;100.00;100664.08;109208;1272;22892;-78
2023/12/03 09:57:33;;;;;;;33.20;26.00;;;;;;;-0.84;100.00;100666.07;109816;1267;22017;-77
2023/12/03 10:00:11;;;;;;;32.20;24.30;;;;;;;-0.93;100.00;100664.05;109998;1267;21977;-77
2023/12/03 10:02:48;;;;;;;33.00;24.20;;;;;;;-0.96;100.00;100669.46;109400;1272;21936;-77
2023/12/03 10:05:28;;;;;;;53.20;41.30;;;;;;;-1.00;100.00;100674.20;109007;1278;22002;-79
2023/12/03 10:08:14;;;;;;;32.90;24.40;;;;;;;-1.03;100.00;100672.95;109249;1276;21989;-77
2023/12/03 10:11:02;;;;;;;30.80;22.90;;;;;;;-1.01;100.00;100673.16;108948;1278;22929;-78
2023/12/03 10:13:51;;;;;;;31.60;23.30;;;;;;;-0.99;100.00;100675.23;109239;1271;21979;-78
2023/12/03 10:16:24;;;;;;;34.50;25.80;;;;;;;-0.95;100.00;100677.02;109657;1271;21984;-77
2023/12/03 10:18:54;;;;;;;;;;;;;;;-0.89;100.00;100682.21;109512;1271;21986;-77
2023/12/03 10:21:30;;;;;;;34.70;25.20;;;;;;;-0.93;100.00;100682.83;110010;1265;22994;-77
2023/12/03 10:24:03;;;;;;;31.10;22.90;;;;;;;-0.90;100.00;100686.30;110076;1266;22903;-79
2023/12/03 10:26:35;;;;;;;33.80;25.00;;;;;;;-0.82;100.00;100690.18;110231;1265;22417;-77
2023/12/03 10:29:16;;;;;;;34.90;26.30;;;;;;;-0.77;100.00;100693.98;110227;1265;21972;-77
2023/12/03 10:31:49;;;;;;;31.10;24.00;;;;;;;-0.73;100.00;100691.33;109268;1271;21786;-78
2023/12/03 10:34:34;;;;;;;32.90;24.50;;;;;;;-0.68;100.00;100694.30;109730;1271;22002;-79
2023/12/03 10:37:16;;;;;;;27.90;21.60;;;;;;;-0.67;100.00;100698.77;109487;1271;22015;-79
2023/12/03 10:39:53;;;;;;;30.00;22.90;;;;;;;-0.65;100.00;100700.50;109021;1277;22138;-79
2023/12/03 10:42:39;;;;;;;36.00;26.10;;;;;;;-0.63;100.00;100700.02;109149;1269;23709;-78
2023/12/03 10:45:12;;;;;;;36.50;27.50;;;;;;;-0.58;100.00;100698.70;108990;1277;23187;-79
2023/12/03 10:48:27;;;;;;;32.80;25.70;;;;;;;-0.53;100.00;100699.64;109043;1267;23065;-80
2023/12/03 10:51:13;;;;;;;33.00;25.50;;;;;;;-0.51;100.00;100704.77;109444;1273;22180;-77
2023/12/03 10:53:55;;;;;;;29.80;23.20;;;;;;;-0.48;100.00;100705.33;109333;1273;22840;-78
2023/12/03 10:56:37;;;;;;;28.80;21.80;;;;;;;-0.46;100.00;100710.66;109050;1276;23612;-76
2023/12/03 11:00:26;;;;;;;28.50;21.70;;;;;;;-0.42;100.00;100714.48;109434;1273;23720;-78
2023/12/03 11:04:19;;;;;;;28.70;22.00;;;;;;;-0.36;100.00;100711.65;109351;1273;22442;-78
2023/12/03 11:06:58;;;;;;;33.50;21.50;;;;;;;-0.32;100.00;100712.38;109429;1273;21988;-79
2023/12/03 11:09:44;;;;;;;34.50;23.10;;;;;;;-0.29;100.00;100714.98;109122;1273;21979;-80
2023/12/03 11:12:30;;;;;;;28.00;20.80;;;;;;;-0.22;100.00;100715.76;109376;1273;23780;-78
2023/12/03 11:15:11;;;;;;;28.60;21.60;;;;;;;-0.21;100.00;100720.55;109580;1269;21998;-78
2023/12/03 11:17:54;;;;;;;28.50;20.00;;;;;;;-0.18;100.00;100725.55;109537;1269;22028;-77
2023/12/03 11:20:57;;;;;;;31.40;21.50;;;;;;;-0.19;100.00;100730.66;109449;1271;21991;-76
2023/12/03 11:24:12;;;;;;;23.20;18.60;;;;;;;-0.23;100.00;100732.33;109369;1272;22022;-77
2023/12/03 11:27:15;;;;;;;30.30;21.70;;;;;;;-0.20;100.00;100735.45;109001;1277;21991;-79
2023/12/03 11:30:10;;;;;;;31.70;21.50;;;;;;;-0.12;100.00;100735.03;108818;1277;23043;-80
2023/12/03 11:32:56;;;;;;;25.40;20.40;;;;;;;-0.10;100.00;100735.73;108803;1281;23052;-79
2023/12/03 11:35:29;;;;;;;;;;;;;;;-0.13;100.00;100732.80;108847;1282;25103;-79
2023/12/03 11:38:30;;;;;;;24.70;19.30;;;;;;;-0.20;100.00;100735.27;108761;1282;22002;-76
2023/12/03 11:41:24;;;;;;;26.10;20.50;;;;;;;-0.18;100.00;100740.26;108761;1276;22133;-78
2023/12/03 11:44:26;;;;;;;23.10;18.50;;;;;;;-0.21;100.00;100741.60;108949;1271;21988;-77
2023/12/03 11:47:12;;;;;;;27.70;21.50;;;;;;;-0.25;100.00;100741.89;109397;1271;23046;-78
2023/12/03 11:49:53;;;;;;;29.90;21.50;;;;;;;-0.25;100.00;100744.10;108873;1277;21994;-77
2023/12/03 11:53:05;;;;;;;28.60;21.60;;;;;;;-0.28;100.00;100745.42;109424;1270;23100;-80
2023/12/03 11:55:51;;;;;;;29.40;22.10;;;;;;;-0.35;100.00;100748.92;109698;1271;21986;-77
2023/12/03 11:58:27;;;;;;;30.30;22.10;;;;;;;-0.41;100.00;100754.50;109224;1277;23837;-76
2023/12/03 12:01:38;;;;;;;31.20;22.50;;;;;;;-0.45;100.00;100760.09;109750;1274;23637;-77
2023/12/03 12:04:24;;;;;;;;;;;;;;;-0.45;100.00;100759.41;109561;1274;21967;-78
2023/12/03 12:07:18;;;;;;;31.60;21.70;;;;;;;-0.52;100.00;100760.67;109210;1258;21980;-78
2023/12/03 12:10:20;;;;;;;30.50;21.30;;;;;;;-0.54;100.00;100760.66;109084;1273;21984;-77
2023/12/03 12:13:25;;;;;;;26.10;20.40;;;;;;;-0.54;100.00;100763.73;109153;1274;22209;-77
2023/12/03 12:16:12;;;;;;;24.70;19.60;;;;;;;-0.60;100.00;100765.86;108573;1280;22752;-79
2023/12/03 12:19:18;;;;;;;27.10;19.50;;;;;;;-0.69;100.00;100768.13;108624;1280;23643;-81